Terminal Aerodrome Forecast
Issued by NWS Charleston, WV

Current Version | Previous Version | Text Only | Print | Product List | Glossary Off
Versions: 1 2 3 4 5 6 7 8 9 10 11 12 13 14 15 16 17 18 19 20 21 22 23 24 25 26 27

000
FTUS41 KRLX 191000 AAB
TAFHTS
TAF AMD
KHTS 191005Z 1910/2006 00000KT P6SM OVC004
      TEMPO 1910/1913 3SM BR OVC002
     FM191400 00000KT 6SM BR HZ BKN100
     FM191700 00000KT 6SM HZ BKN060
     FM191900 VRB03KT P6SM VCTS BKN035CB=

USA.gov is the U.S. government's official web portal to all federal, state and local government web resources and services.